Time;durP1;ratioP1;P1;durP2;ratioP2;P2;SDS_P1;SDS_P2;PMS_P1;PMS_P2;Temp;Humidity;BMP_temperature;BMP_pressure;BME280_temperature;BME280_humidity;BME280_pressure;Samples;Min_cycle;Max_cycle;Signal;HPM_P1;HPM_P2
2024/01/02 00:01:08;;;;;;;;;;;;;;;12.44;100.00;98433.59;7300712;19;19921;-66
2024/01/02 00:03:35;;;;;;;;;;;;;;;12.44;100.00;98436.25;7304240;19;19923;-65
2024/01/02 00:06:02;;;;;;;;;;;;;;;12.48;100.00;98454.28;7307136;19;19919;-67
2024/01/02 00:08:29;;;;;;;;;;;;;;;12.50;100.00;98434.53;7291604;19;20628;-65
2024/01/02 00:10:57;;;;;;;;;;;;;;;12.54;100.00;98430.44;7297481;19;20316;-69
2024/01/02 00:13:24;;;;;;;;;;;;;;;12.55;100.00;98433.88;7293153;19;19927;-66
2024/01/02 00:15:51;;;;;;;;;;;;;;;12.58;100.00;98436.06;7294231;19;21151;-66
2024/01/02 00:18:17;;;;;;;;;;;;;;;12.60;100.00;98434.81;7295065;19;19930;-66
2024/01/02 00:20:45;;;;;;;;;;;;;;;12.64;100.00;98437.81;7305994;19;19915;-66
2024/01/02 00:23:15;;;;;;;;;;;;;;;12.65;100.00;98431.47;7306378;19;19949;-66
2024/01/02 00:25:42;;;;;;;;;;;;;;;12.69;100.00;98446.66;7295996;19;20379;-66
2024/01/02 00:28:09;;;;;;;;;;;;;;;12.68;100.00;98449.53;7289230;19;20882;-66
2024/01/02 00:30:36;;;;;;;;;;;;;;;12.72;100.00;98450.66;7290913;19;19923;-66
2024/01/02 00:33:03;;;;;;;;;;;;;;;12.72;100.00;98448.03;7283255;19;20403;-67
2024/01/02 00:35:31;;;;;;;;;;;;;;;12.73;100.00;98453.09;7296592;19;19922;-66
2024/01/02 00:37:59;;;;;;;;;;;;;;;12.77;100.00;98453.44;7285507;19;21638;-66
2024/01/02 00:40:26;;;;;;;;;;;;;;;12.78;100.00;98449.78;7291463;19;19923;-66
2024/01/02 00:42:53;;;;;;;;;;;;;;;12.79;100.00;98443.47;7302056;19;20276;-66
2024/01/02 00:45:20;;;;;;;;;;;;;;;12.81;100.00;98444.03;7280431;19;19919;-66
2024/01/02 00:47:47;;;;;;;;;;;;;;;12.84;100.00;98448.88;7300844;19;21022;-65
2024/01/02 00:50:14;;;;;;;;;;;;;;;12.85;100.00;98446.00;7289681;19;19915;-66
2024/01/02 00:52:41;;;;;;;;;;;;;;;12.86;100.00;98444.16;7287117;19;19926;-66
2024/01/02 00:55:08;;;;;;;;;;;;;;;12.88;100.00;98454.50;7284395;19;19942;-67
2024/01/02 00:57:35;;;;;;;;;;;;;;;12.88;100.00;98457.94;7294153;19;19933;-66
2024/01/02 01:00:04;;;;;;;;;;;;;;;12.89;100.00;98458.75;7290197;19;19926;-66
2024/01/02 01:02:31;;;;;;;;;;;;;;;12.91;100.00;98454.84;7283377;19;20361;-66
2024/01/02 01:04:58;;;;;;;;;;;;;;;12.92;100.00;98461.75;7283269;19;20341;-66
2024/01/02 01:07:25;;;;;;;;;;;;;;;12.94;100.00;98459.69;7287131;19;20506;-65
2024/01/02 01:09:52;;;;;;;;;;;;;;;12.95;100.00;98463.94;7291835;19;20547;-66
2024/01/02 01:12:19;;;;;;;;;;;;;;;12.94;100.00;98464.16;7297641;19;20174;-66
2024/01/02 01:14:45;;;;;;;;;;;;;;;12.97;100.00;98467.13;7301403;19;19939;-66
2024/01/02 01:17:12;;;;;;;;;;;;;;;12.98;100.00;98473.22;7300621;19;19934;-66
2024/01/02 01:19:39;;;;;;;;;;;;;;;13.00;100.00;98468.53;7300440;19;19915;-67
2024/01/02 01:22:06;;;;;;;;;;;;;;;13.01;100.00;98476.22;7307999;19;19922;-66
2024/01/02 01:24:33;;;;;;;;;;;;;;;13.01;100.00;98465.66;7296688;19;19919;-65
2024/01/02 01:27:00;;;;;;;;;;;;;;;13.02;100.00;98477.81;7298035;19;20545;-66
2024/01/02 01:29:27;;;;;;;;;;;;;;;13.04;100.00;98483.69;7304632;19;20312;-66
2024/01/02 01:31:54;;;;;;;;;;;;;;;13.02;100.00;98483.09;7301143;19;19919;-66
2024/01/02 01:34:21;;;;;;;;;;;;;;;13.02;100.00;98483.09;7301348;19;20006;-65
2024/01/02 01:36:48;;;;;;;;;;;;;;;13.01;100.00;98481.50;7297378;19;19930;-65
2024/01/02 01:39:14;;;;;;;;;;;;;;;13.02;100.00;98500.78;7291223;19;19990;-65
2024/01/02 01:41:41;;;;;;;;;;;;;;;13.01;100.00;98496.53;7288890;19;19951;-66
2024/01/02 01:44:08;;;;;;;;;;;;;;;13.02;100.00;98504.22;7303318;19;19919;-66
2024/01/02 01:46:36;;;;;;;;;;;;;;;13.03;100.00;98507.66;7298527;19;20755;-67
2024/01/02 01:49:05;;;;;;;;;;;;;;;13.03;100.00;98515.59;7300478;19;20174;-66
2024/01/02 01:51:33;;;;;;;;;;;;;;;13.04;100.00;98517.22;7290338;19;19918;-67
2024/01/02 01:54:02;;;;;;;;;;;;;;;13.01;100.00;98523.72;7298906;19;20324;-65
2024/01/02 01:56:30;;;;;;;;;;;;;;;13.00;100.00;98531.91;7294277;19;20350;-65
2024/01/02 01:58:58;;;;;;;;;;;;;;;13.01;100.00;98536.94;7304488;19;20002;-68
2024/01/02 02:01:26;;;;;;;;;;;;;;;13.00;100.00;98524.78;7298938;19;20562;-65
2024/01/02 02:03:58;;;;;;;;;;;;;;;13.00;100.00;98529.25;7298542;19;19919;-65
2024/01/02 02:06:27;;;;;;;;;;;;;;;13.01;100.00;98539.56;7292045;19;20680;-65
2024/01/02 02:08:54;;;;;;;;;;;;;;;12.99;100.00;98539.00;7288179;19;19927;-66
2024/01/02 02:11:21;;;;;;;;;;;;;;;12.94;100.00;98546.78;7293417;19;19919;-65
2024/01/02 02:13:48;;;;;;;;;;;;;;;12.94;100.00;98561.81;7310681;19;20965;-66
2024/01/02 02:16:16;;;;;;;;;;;;;;;12.93;100.00;98554.94;7304495;19;19935;-66
2024/01/02 02:18:43;;;;;;;;;;;;;;;12.93;100.00;98552.28;7301655;19;20631;-66
2024/01/02 02:21:09;;;;;;;;;;;;;;;12.90;100.00;98563.31;7291094;19;19929;-66
2024/01/02 02:23:36;;;;;;;;;;;;;;;12.89;100.00;98559.84;7297079;19;20557;-66
2024/01/02 02:26:03;;;;;;;;;;;;;;;12.86;100.00;98555.00;7297511;19;19915;-67
2024/01/02 02:28:30;;;;;;;;;;;;;;;12.83;100.00;98561.56;7297934;19;19918;-66
2024/01/02 02:30:57;;;;;;;;;;;;;;;12.84;100.00;98557.91;7298168;19;20594;-65
2024/01/02 02:33:24;;;;;;;;;;;;;;;12.83;100.00;98572.13;7290715;19;19942;-68
2024/01/02 02:35:51;;;;;;;;;;;;;;;12.84;100.00;98565.81;7294370;19;19923;-65
2024/01/02 02:38:18;;;;;;;;;;;;;;;12.84;100.00;98563.16;7295783;19;19925;-67
2024/01/02 02:40:48;;;;;;;;;;;;;;;12.86;100.00;98587.50;7304119;19;19922;-66
2024/01/02 02:43:15;;;;;;;;;;;;;;;12.85;100.00;98606.19;7285696;19;20422;-65
2024/01/02 02:45:42;;;;;;;;;;;;;;;12.83;100.00;98590.59;7293798;19;20377;-66
2024/01/02 02:48:08;;;;;;;;;;;;;;;12.82;100.00;98599.53;7299670;19;19915;-66
2024/01/02 02:50:36;;;;;;;;;;;;;;;12.81;100.00;98608.47;7293086;19;19926;-66
2024/01/02 02:53:03;;;;;;;;;;;;;;;12.78;100.00;98608.09;7300251;19;22103;-65
2024/01/02 02:55:30;;;;;;;;;;;;;;;12.76;100.00;98604.88;7290041;19;20301;-65
2024/01/02 02:57:56;;;;;;;;;;;;;;;12.78;100.00;98624.75;7294146;19;19911;-66
2024/01/02 03:00:23;;;;;;;;;;;;;;;12.76;100.00;98623.34;7297018;19;19979;-65
2024/01/02 03:02:50;;;;;;;;;;;;;;;12.75;100.00;98617.25;7299040;19;19922;-65
2024/01/02 03:05:18;;;;;;;;;;;;;;;12.74;100.00;98620.16;7296353;19;19929;-67
2024/01/02 03:07:45;;;;;;;;;;;;;;;12.75;100.00;98627.81;7301863;19;19934;-65
2024/01/02 03:10:17;;;;;;;;;;;;;;;12.72;100.00;98624.81;7299590;19;19983;-65
2024/01/02 03:12:47;;;;;;;;;;;;;;;12.71;100.00;98626.66;7295140;19;20789;-65
2024/01/02 03:15:17;;;;;;;;;;;;;;;12.76;100.00;98636.53;7297529;19;19918;-66
2024/01/02 03:17:43;;;;;;;;;;;;;;;12.74;100.00;98642.06;7300497;19;19923;-66
2024/01/02 03:20:10;;;;;;;;;;;;;;;12.77;100.00;98646.88;7286067;19;19926;-66
2024/01/02 03:22:37;;;;;;;;;;;;;;;12.75;100.00;98648.94;7288009;19;19929;-68
2024/01/02 03:25:04;;;;;;;;;;;;;;;12.76;100.00;98657.66;7288658;19;20397;-66
2024/01/02 03:27:31;;;;;;;;;;;;;;;12.72;100.00;98670.50;7290552;19;20169;-65
2024/01/02 03:29:58;;;;;;;;;;;;;;;12.73;100.00;98658.91;7292736;19;19927;-66
2024/01/02 03:32:25;;;;;;;;;;;;;;;12.73;100.00;98653.63;7281279;19;19926;-65
2024/01/02 03:34:52;;;;;;;;;;;;;;;12.70;100.00;98659.34;7293773;19;19922;-65
2024/01/02 03:37:19;;;;;;;;;;;;;;;12.74;100.00;98657.09;7301140;19;20349;-65
2024/01/02 03:39:46;;;;;;;;;;;;;;;12.72;100.00;98657.28;7295148;19;19915;-65
2024/01/02 03:42:12;;;;;;;;;;;;;;;12.73;100.00;98658.91;7293158;19;20536;-65
2024/01/02 03:44:39;;;;;;;;;;;;;;;12.74;100.00;98657.09;7298049;19;20978;-67
2024/01/02 03:47:06;;;;;;;;;;;;;;;12.72;100.00;98644.09;7293243;19;20282;-67
2024/01/02 03:49:33;;;;;;;;;;;;;;;12.74;100.00;98649.16;7283349;19;19931;-66
2024/01/02 03:52:00;;;;;;;;;;;;;;;12.73;100.00;98648.38;7285776;19;19961;-66
2024/01/02 03:54:27;;;;;;;;;;;;;;;12.71;100.00;98657.50;7282645;19;19937;-66
2024/01/02 03:56:54;;;;;;;;;;;;;;;12.72;100.00;98653.84;7276718;19;20006;-66
2024/01/02 03:59:20;;;;;;;;;;;;;;;12.69;100.00;98652.47;7286114;19;20386;-66
2024/01/02 04:01:47;;;;;;;;;;;;;;;12.67;100.00;98658.97;7282855;19;20370;-66
2024/01/02 04:04:14;;;;;;;;;;;;;;;12.69;100.00;98662.22;7281936;19;20634;-66
2024/01/02 04:06:41;;;;;;;;;;;;;;;12.68;100.00;98663.25;7281394;19;21950;-64
2024/01/02 04:09:11;;;;;;;;;;;;;;;12.67;100.00;98645.78;7286066;19;19922;-65
2024/01/02 04:11:41;;;;;;;;;;;;;;;12.68;100.00;98650.84;7294211;19;19923;-65
2024/01/02 04:14:09;;;;;;;;;;;;;;;12.68;100.00;98653.50;7296576;19;19919;-65
2024/01/02 04:16:39;;;;;;;;;;;;;;;12.68;100.00;98658.78;7294390;19;20760;-67
2024/01/02 04:19:07;;;;;;;;;;;;;;;12.68;100.00;98650.03;7280819;19;22211;-66
2024/01/02 04:21:35;;;;;;;;;;;;;;;12.68;100.00;98655.31;7294574;19;19919;-66
2024/01/02 04:24:02;;;;;;;;;;;;;;;12.68;100.00;98650.84;7285462;19;19911;-66
2024/01/02 04:26:30;;;;;;;;;;;;;;;12.69;100.00;98643.75;7287879;19;19911;-66
2024/01/02 04:28:57;;;;;;;;;;;;;;;12.67;100.00;98643.16;7287158;19;19922;-65
2024/01/02 04:31:24;;;;;;;;;;;;;;;12.69;100.00;98634.00;7294243;19;19922;-66
2024/01/02 04:33:51;;;;;;;;;;;;;;;12.72;100.00;98630.91;7292418;19;19925;-66
2024/01/02 04:36:18;;;;;;;;;;;;;;;12.72;100.00;98627.47;7299195;19;19982;-66
2024/01/02 04:38:44;;;;;;;;;;;;;;;12.72;100.00;98630.91;7289530;19;19918;-65
2024/01/02 04:41:13;;;;;;;;;;;;;;;12.72;100.00;98627.47;7306700;19;19921;-65
2024/01/02 04:43:39;;;;;;;;;;;;;;;12.70;100.00;98634.78;7300118;19;19957;-65
2024/01/02 04:46:06;;;;;;;;;;;;;;;12.72;100.00;98630.91;7300679;19;19922;-64
2024/01/02 04:48:33;;;;;;;;;;;;;;;12.75;100.00;98641.00;7297715;19;19915;-65
2024/01/02 04:51:00;;;;;;;;;;;;;;;12.75;100.00;98642.84;7290409;19;20546;-65
2024/01/02 04:53:27;;;;;;;;;;;;;;;12.75;100.00;98637.56;7289126;19;20215;-66
2024/01/02 04:55:54;;;;;;;;;;;;;;;12.75;100.00;98633.09;7283390;19;19919;-67
2024/01/02 04:58:21;;;;;;;;;;;;;;;12.75;100.00;98629.66;7293731;19;19923;-65
2024/01/02 05:00:47;;;;;;;;;;;;;;;12.75;100.00;98627.81;7301124;19;19911;-68
2024/01/02 05:03:15;;;;;;;;;;;;;;;12.75;100.00;98629.66;7317970;19;19945;-66
2024/01/02 05:05:42;;;;;;;;;;;;;;;12.75;100.00;98632.28;7314236;19;19950;-66
2024/01/02 05:08:09;;;;;;;;;;;;;;;12.72;100.00;98636.19;7297308;19;19915;-66
2024/01/02 05:10:36;;;;;;;;;;;;;;;12.76;100.00;98633.91;7289341;19;19949;-65
2024/01/02 05:13:03;;;;;;;;;;;;;;;12.77;100.00;98625.78;7289141;19;19923;-65
2024/01/02 05:15:30;;;;;;;;;;;;;;;12.77;100.00;98630.25;7313699;19;20551;-65
2024/01/02 05:17:57;;;;;;;;;;;;;;;12.78;100.00;98631.84;7297352;19;19987;-66
2024/01/02 05:20:24;;;;;;;;;;;;;;;12.77;100.00;98623.13;7300022;19;20333;-66
2024/01/02 05:22:54;;;;;;;;;;;;;;;12.77;100.00;98623.13;7295395;19;19927;-65
2024/01/02 05:25:36;;;;;;;;;;;;;;;12.76;100.00;98623.34;7290549;19;20867;-65
2024/01/02 05:28:03;;;;;;;;;;;;;;;12.77;100.00;98628.41;7295973;19;19930;-68
2024/01/02 05:30:30;;;;;;;;;;;;;;;12.74;100.00;98642.06;7299995;19;19918;-67
2024/01/02 05:32:57;;;;;;;;;;;;;;;12.77;100.00;98625.78;7290446;19;20780;-67
2024/01/02 05:35:24;;;;;;;;;;;;;;;12.77;100.00;98636.34;7296355;19;19945;-65
2024/01/02 05:37:51;;;;;;;;;;;;;;;12.79;100.00;98633.47;7294917;19;19926;-65
2024/01/02 05:40:18;;;;;;;;;;;;;;;12.78;100.00;98623.94;7295198;19;21885;-65
2024/01/02 05:42:51;;;;;;;;;;;;;;;12.77;100.00;98619.69;7286211;19;20872;-66
2024/01/02 05:45:18;;;;;;;;;;;;;;;12.78;100.00;98627.41;7281058;19;20388;-66
2024/01/02 05:47:46;;;;;;;;;;;;;;;12.79;100.00;98617.66;7304689;19;20418;-66
2024/01/02 05:50:13;;;;;;;;;;;;;;;12.80;100.00;98627.16;7298275;19;19934;-65
2024/01/02 05:52:42;;;;;;;;;;;;;;;12.80;100.00;98624.50;7306727;19;19985;-67
2024/01/02 05:55:09;;;;;;;;;;;;;;;12.80;100.00;98617.41;7319485;19;19986;-70
2024/01/02 05:57:35;;;;;;;;;;;;;;;12.80;100.00;98608.69;7303297;19;19918;-65
2024/01/02 06:00:03;;;;;;;;;;;;;;;12.80;100.00;98606.03;7305793;19;19922;-66
2024/01/02 06:02:29;;;;;;;;;;;;;;;12.81;100.00;98611.09;7307738;19;19958;-65
2024/01/02 06:04:56;;;;;;;;;;;;;;;12.80;100.00;98608.69;7297584;19;19919;-66
2024/01/02 06:07:23;;;;;;;;;;;;;;;12.80;100.00;98603.41;7290412;19;20503;-65
2024/01/02 06:09:50;;;;;;;;;;;;;;;12.82;100.00;98609.28;7302249;19;19925;-64
2024/01/02 06:12:17;;;;;;;;;;;;;;;12.80;100.00;98600.75;7304139;19;19926;-66
2024/01/02 06:14:44;;;;;;;;;;;;;;;12.83;100.00;98609.06;7289561;19;19988;-67
2024/01/02 06:17:12;;;;;;;;;;;;;;;12.85;100.00;98595.63;7301034;19;19938;-66
2024/01/02 06:19:39;;;;;;;;;;;;;;;12.84;100.00;98594.03;7301621;19;20593;-66
2024/01/02 06:22:06;;;;;;;;;;;;;;;12.84;100.00;98581.66;7297148;19;19921;-65
2024/01/02 06:24:33;;;;;;;;;;;;;;;12.86;100.00;98586.69;7300457;19;19935;-65
2024/01/02 06:27:00;;;;;;;;;;;;;;;12.88;100.00;98594.38;7298313;19;19930;-66
2024/01/02 06:29:26;;;;;;;;;;;;;;;12.88;100.00;98603.09;7306204;19;20170;-66
2024/01/02 06:31:53;;;;;;;;;;;;;;;12.88;100.00;98589.09;7290173;19;20707;-66
2024/01/02 06:34:20;;;;;;;;;;;;;;;12.89;100.00;98593.38;7296371;19;20151;-66
2024/01/02 06:36:47;;;;;;;;;;;;;;;12.92;100.00;98590.25;7295137;19;20131;-67
2024/01/02 06:39:15;;;;;;;;;;;;;;;12.91;100.00;98580.72;7299553;19;19914;-65
2024/01/02 06:41:42;;;;;;;;;;;;;;;12.93;100.00;98584.78;7289084;19;19925;-66
2024/01/02 06:44:11;;;;;;;;;;;;;;;12.94;100.00;98591.66;7294151;19;22276;-67
2024/01/02 06:46:38;;;;;;;;;;;;;;;12.94;100.00;98590.84;7282845;19;19945;-65
2024/01/02 06:49:04;;;;;;;;;;;;;;;12.97;100.00;98585.13;7291019;19;20691;-65
2024/01/02 06:51:31;;;;;;;;;;;;;;;13.00;100.00;98587.34;7290301;19;20188;-65
2024/01/02 06:53:59;;;;;;;;;;;;;;;12.97;100.00;98588.56;7302535;19;19927;-67
2024/01/02 06:56:26;;;;;;;;;;;;;;;13.00;100.00;98582.06;7299341;19;19922;-65
2024/01/02 06:58:53;;;;;;;;;;;;;;;13.00;100.00;98574.94;7308266;19;19917;-66
2024/01/02 07:01:24;;;;;;;;;;;;;;;12.96;100.00;98568.47;7307690;19;20443;-65
2024/01/02 07:03:51;;;;;;;;;;;;;;;12.97;100.00;98564.81;7311803;19;21052;-65
2024/01/02 07:06:18;;;;;;;;;;;;;;;12.97;100.00;98564.00;7300370;19;21706;-66
2024/01/02 07:08:46;;;;;;;;;;;;;;;12.98;100.00;98558.50;7284350;19;20395;-66
2024/01/02 07:11:13;;;;;;;;;;;;;;;12.95;100.00;98548.41;7293411;19;20908;-66
2024/01/02 07:13:40;;;;;;;;;;;;;;;12.96;100.00;98547.34;7305462;19;19986;-65
2024/01/02 07:16:07;;;;;;;;;;;;;;;12.98;100.00;98545.31;7291862;19;20560;-66
2024/01/02 07:18:35;;;;;;;;;;;;;;;12.98;100.00;98532.09;7295761;19;19918;-66
2024/01/02 07:21:02;;;;;;;;;;;;;;;12.97;100.00;98535.78;7298896;19;19958;-65
2024/01/02 07:23:29;;;;;;;;;;;;;;;12.97;100.00;98530.50;7294607;19;19919;-66
2024/01/02 07:25:56;;;;;;;;;;;;;;;12.93;100.00;98524.06;7301868;19;19911;-65
2024/01/02 07:28:23;;;;;;;;;;;;;;;12.92;100.00;98519.81;7301873;19;19915;-66
2024/01/02 07:30:51;;;;;;;;;;;;;;;12.90;100.00;98508.66;7291080;19;20898;-65
2024/01/02 07:33:19;;;;;;;;;;;;;;;12.89;100.00;98507.06;7288263;19;19915;-67
2024/01/02 07:35:48;;;;;;;;;;;;;;;12.88;100.00;98504.66;7299437;19;19922;-67
2024/01/02 07:38:15;;;;;;;;;;;;;;;12.85;100.00;98490.06;7296394;19;20359;-65
2024/01/02 07:40:42;;;;;;;;;;;;;;;12.84;100.00;98484.00;7295227;19;20477;-65
2024/01/02 07:43:09;;;;;;;;;;;;;;;12.85;100.00;98487.41;7301414;19;19926;-66
2024/01/02 07:45:36;;;;;;;;;;;;;;;12.83;100.00;98478.94;7300135;19;20233;-65
2024/01/02 07:48:03;;;;;;;;;;;;;;;12.82;100.00;98482.59;7291895;19;19926;-66
2024/01/02 07:50:30;;;;;;;;;;;;;;;12.78;100.00;98482.25;7294567;19;20306;-66
2024/01/02 07:52:57;;;;;;;;;;;;;;;12.78;100.00;98470.88;7289120;19;21741;-65
2024/01/02 07:55:24;;;;;;;;;;;;;;;12.74;100.00;98464.47;7287005;19;20545;-65
2024/01/02 07:57:51;;;;;;;;;;;;;;;12.71;100.00;98455.16;7287610;19;20392;-66
2024/01/02 08:00:18;;;;;;;;;;;;;;;12.70;100.00;98456.16;7281213;19;19946;-65
2024/01/02 08:02:50;;;;;;;;;;;;;;;12.71;100.00;98449.88;7294511;19;20624;-64
2024/01/02 08:05:18;;;;;;;;;;;;;;;12.71;100.00;98446.41;7292839;19;20240;-65
2024/01/02 08:07:45;;;;;;;;;;;;;;;12.71;100.00;98446.41;7296943;19;19927;-66
2024/01/02 08:10:12;;;;;;;;;;;;;;;12.71;100.00;98441.13;7280239;19;19923;-65
2024/01/02 08:12:39;;;;;;;;;;;;;;;12.69;100.00;98440.59;7291003;19;20089;-66
2024/01/02 08:15:06;;;;;;;;;;;;;;;12.68;100.00;98439.78;7313495;19;20343;-64
2024/01/02 08:17:33;;;;;;;;;;;;;;;12.66;100.00;98431.28;7307402;19;19951;-65
2024/01/02 08:20:00;;;;;;;;;;;;;;;12.67;100.00;98426.81;7293700;19;19955;-66
2024/01/02 08:22:27;;;;;;;;;;;;;;;12.67;100.00;98424.16;7285032;19;19926;-65
2024/01/02 08:24:54;;;;;;;;;;;;;;;12.65;100.00;98413.81;7279477;19;20703;-66
2024/01/02 08:27:25;;;;;;;;;;;;;;;12.66;100.00;98415.44;7287488;19;20002;-65
2024/01/02 08:29:54;;;;;;;;;;;;;;;12.64;100.00;98408.78;7293790;19;19915;-67
2024/01/02 08:32:22;;;;;;;;;;;;;;;12.65;100.00;98394.53;7303775;19;19922;-66
2024/01/02 08:34:49;;;;;;;;;;;;;;;12.65;100.00;98387.44;7311043;19;20765;-65
2024/01/02 08:37:16;;;;;;;;;;;;;;;12.65;100.00;98379.53;7289882;19;20842;-66
2024/01/02 08:39:43;;;;;;;;;;;;;;;12.63;100.00;98372.88;7291192;19;21794;-69
2024/01/02 08:42:10;;;;;;;;;;;;;;;12.62;100.00;98356.25;7294834;19;20683;-68
2024/01/02 08:44:37;;;;;;;;;;;;;;;12.63;100.00;98362.34;7281192;19;19918;-66
2024/01/02 08:47:05;;;;;;;;;;;;;;;12.61;100.00;98345.91;7285747;19;21723;-66
2024/01/02 08:49:32;;;;;;;;;;;;;;;12.61;100.00;98348.56;7287921;19;20234;-65
2024/01/02 08:52:00;;;;;;;;;;;;;;;12.60;100.00;98339.84;7306237;19;19929;-65
2024/01/02 08:54:27;;;;;;;;;;;;;;;12.61;100.00;98332.72;7290555;19;20621;-66
2024/01/02 08:56:54;;;;;;;;;;;;;;;12.60;100.00;98334.56;7289970;19;19921;-67
2024/01/02 08:59:21;;;;;;;;;;;;;;;12.59;100.00;98321.63;7282358;19;20269;-67
2024/01/02 09:01:49;;;;;;;;;;;;;;;12.59;100.00;98309.22;7301878;19;20338;-66
2024/01/02 09:04:16;;;;;;;;;;;;;;;12.59;100.00;98303.16;7285507;19;20228;-67
2024/01/02 09:06:44;;;;;;;;;;;;;;;12.62;100.00;98297.41;7303568;19;19929;-67
2024/01/02 09:09:13;;;;;;;;;;;;;;;12.62;100.00;98292.13;7291212;19;20492;-64
2024/01/02 09:11:40;;;;;;;;;;;;;;;12.62;100.00;98278.94;7303528;19;22099;-68
2024/01/02 09:14:07;;;;;;;;;;;;;;;12.61;100.00;98264.94;7294473;19;20986;-65
2024/01/02 09:16:38;;;;;;;;;;;;;;;12.62;100.00;98260.47;7292182;19;19919;-67
2024/01/02 09:19:12;;;;;;;;;;;;;;;12.61;100.00;98249.13;7289102;19;22222;-66
2024/01/02 09:21:42;;;;;;;;;;;;;;;12.60;100.00;98241.41;7294510;19;19923;-66
2024/01/02 09:24:10;;;;;;;;;;;;;;;12.60;100.00;98230.88;7293337;19;19938;-66
2024/01/02 09:26:39;;;;;;;;;;;;;;;12.61;100.00;98220.09;7280155;19;20384;-66
2024/01/02 09:29:07;;;;;;;;;;;;;;;12.64;100.00;98221.50;7289320;19;20438;-68
2024/01/02 09:31:35;;;;;;;;;;;;;;;12.67;100.00;98218.38;7303528;19;20613;-66
2024/01/02 09:34:02;;;;;;;;;;;;;;;12.66;100.00;98214.13;7295005;19;19919;-65
2024/01/02 09:36:29;;;;;;;;;;;;;;;12.64;100.00;98206.47;7310139;19;20224;-66
2024/01/02 09:38:57;;;;;;;;;;;;;;;12.64;100.00;98184.56;7298240;19;19919;-65
2024/01/02 09:41:30;;;;;;;;;;;;;;;12.64;100.00;98180.09;7282182;19;19918;-65
2024/01/02 09:43:58;;;;;;;;;;;;;;;12.66;100.00;98161.38;7297642;19;19919;-67
2024/01/02 09:46:29;;;;;;;;;;;;;;;12.67;100.00;98166.41;7305121;19;19927;-66
2024/01/02 09:49:20;;;;;;;;;;;;;;;12.68;100.00;98148.75;7308149;19;19923;-66
2024/01/02 09:52:20;;;;;;;;;;;;;;;12.70;100.00;98155.38;7280977;19;19958;-67
2024/01/02 09:54:55;;;;;;;;;;;;;;;12.72;100.00;98155.16;7302761;19;19915;-66
2024/01/02 09:57:23;;;;;;;;;;;;;;;12.72;100.00;98150.69;7301414;19;19948;-66
2024/01/02 10:00:01;;;;;;;;;;;;;;;12.71;100.00;98130.63;7312541;19;20504;-66
2024/01/02 10:02:45;;;;;;;;;;;;;;;12.71;100.00;98130.63;7286816;19;19930;-66
2024/01/02 10:05:24;;;;;;;;;;;;;;;12.74;100.00;98124.88;7302194;19;19911;-68
2024/01/02 10:07:58;;;;;;;;;;;;;;;12.72;100.00;98110.31;7290041;19;20006;-65
2024/01/02 10:10:36;;;;;;;;;;;;;;;12.75;100.00;98115.91;7289349;19;20413;-65
2024/01/02 10:13:14;;;;;;;;;;;;;;;12.74;100.00;98103.78;7300477;19;19926;-68
2024/01/02 10:16:00;;;;;;;;;;;;;;;12.76;100.00;98098.25;7303119;19;19930;-64
2024/01/02 10:18:45;;;;;;;;;;;;;;;12.78;100.00;98097.00;7305303;19;19985;-66
2024/01/02 10:21:15;;;;;;;;;;;;;;;12.80;100.00;98089.63;7301548;19;19937;-66
2024/01/02 10:23:51;;;;;;;;;;;;;;;12.81;100.00;98075.41;7296791;19;19919;-66
2024/01/02 10:26:19;;;;;;;;;;;;;;;12.84;100.00;98076.78;7307279;19;20307;-67
2024/01/02 10:28:48;;;;;;;;;;;;;;;12.88;100.00;98071.81;7284770;19;20268;-66
2024/01/02 10:31:19;;;;;;;;;;;;;;;12.89;100.00;98071.59;7289699;19;20214;-66
2024/01/02 10:33:50;;;;;;;;;;;;;;;12.92;100.00;98059.75;7303071;19;19919;-66
2024/01/02 10:36:20;;;;;;;;;;;;;;;12.96;100.00;98048.50;7296437;19;19922;-66
2024/01/02 10:38:47;;;;;;;;;;;;;;;13.00;100.00;98039.09;7308602;19;19930;-66
2024/01/02 10:41:27;;;;;;;;;;;;;;;13.03;100.00;98035.16;7301805;19;20478;-66
2024/01/02 10:43:58;;;;;;;;;;;;;;;13.07;100.00;98007.22;7296150;19;19930;-66
2024/01/02 10:46:31;;;;;;;;;;;;;;;13.08;100.00;97998.28;7296875;19;19923;-67
2024/01/02 10:49:18;;;;;;;;;;;;;;;13.11;100.00;97988.06;7284603;19;19933;-66
2024/01/02 10:51:51;;;;;;;;;;;;;;;13.16;100.00;97985.50;7293672;19;20365;-66
2024/01/02 10:54:42;;;;;;;;;;;;;;;13.17;100.00;97967.81;7286627;19;20838;-66
2024/01/02 10:57:14;;;;;;;;;;;;;;;13.20;100.00;97960.25;7288976;19;19922;-67
2024/01/02 10:59:53;;;;;;;;;;;;;;;13.25;100.00;97947.13;7305341;19;20572;-67
2024/01/02 11:02:44;;;;;;;;;;;;;;;13.30;100.00;97925.28;7288529;19;20502;-65
2024/01/02 11:05:28;;;;;;;;;;;;;;;13.32;100.00;97925.00;7304568;19;21395;-67
2024/01/02 11:08:00;;;;;;;;;;;;;;;13.35;100.00;97916.63;7290172;19;20639;-64
2024/01/02 11:10:30;;;;;;;;;;;;;;;13.38;100.00;97909.00;7308581;19;20055;-66
2024/01/02 11:13:05;;;;;;;;;;;;;;;13.36;100.00;97889.94;7291657;19;19955;-67
2024/01/02 11:15:42;;;;;;;;;;;;;;;13.37;100.00;97886.25;7306303;19;19925;-67
2024/01/02 11:18:11;;;;;;;;;;;;;;;13.38;100.00;97872.03;7297430;19;19922;-67
2024/01/02 11:21:02;;;;;;;;;;;;;;;13.42;100.00;97861.75;7315521;19;20019;-66
2024/01/02 11:23:39;;;;;;;;;;;;;;;13.45;100.00;97845.44;7306475;19;19930;-66
2024/01/02 11:26:12;;;;;;;;;;;;;;;13.46;100.00;97833.84;7290487;19;20471;-66
2024/01/02 11:28:41;;;;;;;;;;;;;;;13.48;100.00;97814.03;7302856;19;20025;-66
2024/01/02 11:31:09;;;;;;;;;;;;;;;13.51;100.00;97810.13;7297678;19;19911;-66
2024/01/02 11:33:48;;;;;;;;;;;;;;;13.50;100.00;97796.13;7292481;19;19933;-66
2024/01/02 11:36:28;;;;;;;;;;;;;;;13.51;100.00;97792.41;7288522;19;19926;-66
2024/01/02 11:39:00;;;;;;;;;;;;;;;13.50;100.00;97788.19;7316554;19;19945;-66
2024/01/02 11:41:38;;;;;;;;;;;;;;;13.50;100.00;97772.34;7316899;19;20321;-66
2024/01/02 11:44:24;;;;;;;;;;;;;;;13.49;100.00;97767.31;7312976;19;19922;-65
2024/01/02 11:46:58;;;;;;;;;;;;;;;13.49;100.00;97749.59;7304750;19;19930;-66
2024/01/02 11:49:28;;;;;;;;;;;;;;;13.53;100.00;97749.91;7292376;19;19927;-66
2024/01/02 11:52:26;;;;;;;;;;;;;;;13.52;100.00;97738.53;7296781;19;20296;-66
2024/01/02 11:54:54;;;;;;;;;;;;;;;13.55;100.00;97732.78;7308319;19;21206;-66
2024/01/02 11:57:25;;;;;;;;;;;;;;;13.60;100.00;97709.03;7305690;19;19986;-65
2024/01/02 12:00:03;;;;;;;;;;;;;;;13.55;100.00;97710.84;7290379;19;20001;-65
2024/01/02 12:02:47;;;;;;;;;;;;;;;13.60;100.00;97698.47;7307633;19;20534;-66
2024/01/02 12:05:24;;;;;;;;;;;;;;;13.60;100.00;97693.19;7298943;19;20507;-66
2024/01/02 12:07:53;;;;;;;;;;;;;;;13.62;100.00;97677.88;7294585;19;19926;-69
2024/01/02 12:10:22;;;;;;;;;;;;;;;13.63;100.00;97665.47;7295968;19;20749;-67
2024/01/02 12:13:08;;;;;;;;;;;;;;;13.64;100.00;97656.50;7294500;19;20372;-67
2024/01/02 12:15:51;;;;;;;;;;;;;;;13.64;100.00;97659.13;7290033;19;20217;-66
2024/01/02 12:18:22;;;;;;;;;;;;;;;13.62;100.00;97646.16;7312098;19;20337;-67
2024/01/02 12:20:57;;;;;;;;;;;;;;;13.61;100.00;97627.94;7281527;19;20254;-67
2024/01/02 12:23:29;;;;;;;;;;;;;;;13.61;100.00;97612.09;7309263;19;19955;-66
2024/01/02 12:26:03;;;;;;;;;;;;;;;13.63;100.00;97623.19;7315830;19;20379;-67
2024/01/02 12:28:35;;;;;;;;;;;;;;;13.62;100.00;97606.53;7294391;19;20024;-67
2024/01/02 12:31:21;;;;;;;;;;;;;;;13.63;100.00;97588.84;7296249;19;20498;-66
2024/01/02 12:33:57;;;;;;;;;;;;;;;13.71;100.00;97589.16;7283657;19;20726;-67
2024/01/02 12:36:45;;;;;;;;;;;;;;;13.79;100.00;97579.19;7294030;19;19915;-67
2024/01/02 12:39:19;;;;;;;;;;;;;;;13.84;100.00;97576.59;7301861;19;19951;-67
2024/01/02 12:41:52;;;;;;;;;;;;;;;13.85;100.00;97564.97;7295186;19;19938;-67
2024/01/02 12:44:21;;;;;;;;;;;;;;;13.86;100.00;97561.28;7297249;19;19923;-66
2024/01/02 12:46:50;;;;;;;;;;;;;;;13.86;100.00;97546.22;7292895;19;19927;-67